• Join FlightAware (Why Join?)
  • Login
  • US Flag 
04:42AM EST


 

Airport Tracker/Info


-or-


 

Live Flight TrackerFlight Track Log ✈ AFL1126 ✈ 14-Jun-2014 ✈ UUEE / SVO - URSS / AER

Flight Track Log - Related Links

Times and Time Zones

All times are in EDT time to prevent confusion due to time zone crossing. See the AFL1126 flight status page for this flight to view local times or setup timezone preferences in your user account.

Time Position Orientation Groundspeed Altitude Reporting Facility
EDT Latitude Longitude Course Direction KTS MPH feet Rate Location/Type
10:54AM 55.8045 37.2697 171° South  Level Estimated
10:55AM 55.7048 37.2979 171° South  Level Estimated
10:56AM 55.6051 37.3260 171° South  Level Estimated
10:57AM 55.5053 37.3540 171° South  Level Estimated
10:58AM 55.4056 37.3818 171° South  Level Estimated
10:59AM 55.3059 37.4094 171° South  Level Estimated
11:00AM 55.2061 37.4370 171° South  Level Estimated
11:01AM 55.1064 37.4644 171° South  Level Estimated
11:02AM 55.0066 37.4916 171° South  Level Estimated
11:03AM 54.9069 37.5187 171° South  Level Estimated
11:04AM 54.8071 37.5457 171° South  Level Estimated
11:05AM 54.7147 37.5706 171° South  Level Estimated
11:06AM 54.6223 37.5953 171° South  Level Estimated
11:07AM 54.5299 37.6200 171° South  Level Estimated
11:08AM 54.4375 37.6445 171° South  Level Estimated
11:09AM 54.3451 37.6689 171° South  Level Estimated
11:10AM 54.2527 37.6932 171° South  Level Estimated
11:11AM 54.1603 37.7174 171° South  Level Estimated
11:12AM 54.0679 37.7415 171° South  Level Estimated
11:13AM 53.9754 37.7655 171° South  Level Estimated
11:14AM 53.8830 37.7894 171° South  Level Estimated
11:15AM 53.7906 37.8132 171° South  Level Estimated
11:16AM 53.6981 37.8369 171° South  Level Estimated
11:17AM 53.6057 37.8604 171° South  Level Estimated
11:18AM 53.5132 37.8839 171° South  Level Estimated
11:19AM 53.4208 37.9072 171° South  Level Estimated
11:20AM 53.3283 37.9305 171° South  Level Estimated
11:21AM 53.2359 37.9537 171° South  Level Estimated
11:22AM 53.1434 37.9767 171° South  Level Estimated
11:23AM 53.0509 37.9997 172° South  Level Estimated
11:24AM 52.9585 38.0226 172° South  Level Estimated
11:25AM 52.8660 38.0453 172° South  Level Estimated
11:26AM 52.7735 38.0680 172° South  Level Estimated
11:27AM 52.6810 38.0906 172° South  Level Estimated
11:28AM 52.5885 38.1130 172° South  Level Estimated
11:29AM 52.4960 38.1354 172° South  Level Estimated
11:30AM 52.4035 38.1577 172° South  Level Estimated
11:31AM 52.3110 38.1799 172° South  Level Estimated
11:32AM 52.2185 38.2020 172° South  Level Estimated
11:33AM 52.1260 38.2240 172° South  Level Estimated
11:34AM 52.0335 38.2459 172° South  Level Estimated
11:35AM 51.9409 38.2678 172° South  Level Estimated
11:36AM 51.8484 38.2895 172° South  Level Estimated
11:37AM 51.7559 38.3112 172° South  Level Estimated
11:38AM 51.6634 38.3327 172° South  Level Estimated
11:39AM 51.5708 38.3542 172° South  Level Estimated
11:40AM 51.4783 38.3756 172° South  Level Estimated
11:41AM 51.3857 38.3969 172° South  Level Estimated
11:42AM 51.2932 38.4181 172° South  Level Estimated
11:43AM 51.2006 38.4392 172° South  Level Estimated
11:44AM 51.1081 38.4603 172° South  Level Estimated
11:45AM 51.0155 38.4812 172° South  Level Estimated
11:46AM 50.9230 38.5021 172° South  Level Estimated
11:47AM 50.8304 38.5229 172° South  Level Estimated
11:48AM 50.7378 38.5436 172° South  Level Estimated
11:49AM 50.6452 38.5642 172° South  Level Estimated
11:50AM 50.5527 38.5848 172° South  Level Estimated
11:51AM 50.4601 38.6053 172° South  Level Estimated
11:52AM 50.3675 38.6256 172° South  Level Estimated
11:53AM 50.2749 38.6460 172° South  Level Estimated
11:54AM 50.1823 38.6662 172° South  Level Estimated
11:55AM 50.0897 38.6863 172° South  Level Estimated
11:56AM 49.9971 38.7064 172° South  Level Estimated
11:57AM 49.9045 38.7264 172° South  Level Estimated
11:58AM 49.8119 38.7463 172° South  Level Estimated
11:59AM 49.7193 38.7662 172° South  Level Estimated
12:00PM 49.6267 38.7859 172° South  Level Estimated
12:01PM 49.5341 38.8056 172° South  Level Estimated
12:02PM 49.4414 38.8252 172° South  Level Estimated
12:03PM 49.3488 38.8448 172° South  Level Estimated
12:04PM 49.2562 38.8643 172° South  Level Estimated
12:05PM 49.1636 38.8837 172° South  Level Estimated
12:06PM 49.0709 38.9030 172° South  Level Estimated
12:07PM 48.9783 38.9222 172° South  Level Estimated
12:08PM 48.8857 38.9414 172° South  Level Estimated
12:09PM 48.7930 38.9605 172° South  Level Estimated
12:10PM 48.7004 38.9796 172° South  Level Estimated
12:11PM 48.6077 38.9985 172° South  Level Estimated
12:12PM 48.5151 39.0174 172° South  Level Estimated
12:13PM 48.4224 39.0363 172° South  Level Estimated
12:14PM 48.3298 39.0550 172° South  Level Estimated
12:15PM 48.2371 39.0737 172° South  Level Estimated
12:16PM 48.1444 39.0924 172° South  Level Estimated
12:17PM 48.0518 39.1109 172° South  Level Estimated
12:18PM 47.9591 39.1294 172° South  Level Estimated
12:19PM 47.8664 39.1479 172° South  Level Estimated
12:20PM 47.7737 39.1662 172° South  Level Estimated
12:21PM 47.6811 39.1845 172° South  Level Estimated
12:22PM 47.5884 39.2027 172° South  Level Estimated
12:23PM 47.4957 39.2209 172° South  Level Estimated
12:24PM 47.4030 39.2390 172° South  Level Estimated
12:25PM 47.3103 39.2570 172° South  Level Estimated
12:26PM 47.2176 39.2750 172° South  Level Estimated
12:27PM 47.1249 39.2929 173° South  Level Estimated
12:28PM 47.0322 39.3108 173° South  Level Estimated
12:29PM 46.9395 39.3286 173° South  Level Estimated
12:30PM 46.8468 39.3463 173° South  Level Estimated
12:30PM 45.0373 38.9171 197° South 431 496 35,100  Level FlightAware ADS-B
12:31PM 44.9594 38.8827 197° South 429 494 35,000 -120 Descending FlightAware ADS-B
12:32PM 44.8852 38.8501 197° South 429 494 35,000 -480 Level FlightAware ADS-B
12:32PM 44.8086 38.8165 197° South 424 488 34,400 -1,020 Descending FlightAware ADS-B
12:33PM 44.7340 38.7927 189° South 429 494 33,700 -960 Descending FlightAware ADS-B
12:34PM 44.6616 38.7779 188° South 436 502 33,200 -1,560 Descending FlightAware ADS-B
12:34PM 44.5760 38.7598 189° South 435 501 31,700 -2,160 Descending FlightAware ADS-B
12:35PM 44.5140 38.7468 189° South 431 496 30,600 -2,100 Descending FlightAware ADS-B
12:35PM 44.4400 38.7312 189° South 425 489 29,300 -2,100 Descending FlightAware ADS-B
12:36PM 44.3603 38.7146 189° South 418 481 27,800 -2,160 Descending FlightAware ADS-B
12:37PM 44.2853 38.7074 180° South 417 480 26,400 -2,160 Descending FlightAware ADS-B
12:37PM 44.2129 38.7129 176° South 413 475 25,100 -2,340 Descending FlightAware ADS-B
12:38PM 44.1502 38.7182 177° South 412 474 23,700 -2,160 Descending FlightAware ADS-B
12:40PM 43.9646 38.7343 172° South 391 450 20,400 -1,980 Descending FlightAware ADS-B
12:40PM 43.9030 38.7826 136° Southeast 398 458 19,200 -1,860 Descending FlightAware ADS-B
12:43PM 43.8035 39.0445 118° Southeast  Level Estimated
12:44PM 43.7598 39.1590 118° Southeast  Level Estimated
12:45PM 43.7159 39.2733 118° Southeast  Level Estimated
12:46PM 43.6720 39.3874 118° Southeast  Level Estimated
12:47PM 43.6279 39.5013 118° Southeast  Level Estimated
12:48PM 43.5837 39.6151 118° Southeast  Level Estimated